| Date | Time | Temp. (oF) | Dew Point (oF) | Rel. Hum. (%) | Press. (in.) | Wind Dir. | Wind Speed (mph) | Hourly Rainfall (in.) |
|
|---|---|---|---|---|---|---|---|---|---|
| 1 | 08/01 | 00:00 | 71 | 61 | 72 | 29.79 | SSW | 0 | 0.00 |
| 2 | 07/31 | 23:00 | 73 | 62 | 69 | 29.79 | SSW | 0 | 0.00 |
| 3 | 07/31 | 22:00 | 74 | 62 | 67 | 29.78 | SW | 0 | 0.00 |
| 4 | 07/31 | 21:00 | 76 | 61 | 62 | 29.76 | SSW | 0 | 0.00 |
| 5 | 07/31 | 20:00 | 81 | 59 | 48 | 29.75 | SSW | 0 | 0.00 |
| 6 | 07/31 | 19:00 | 83 | 56 | 41 | 29.74 | WSW | 0 | 0.00 |
| 7 | 07/31 | 18:00 | 85 | 56 | 38 | 29.75 | SW | 5 | 0.00 |
| 8 | 07/31 | 17:00 | 86 | 55 | 36 | 29.77 | NNW | 0 | 0.00 |
| 9 | 07/31 | 16:00 | 87 | 60 | 41 | 29.79 | SW | 0 | 0.00 |
| 10 | 07/31 | 15:00 | 86 | 57 | 38 | 29.81 | SW | 7 | 0.00 |
| 11 | 07/31 | 14:00 | 86 | 59 | 41 | 29.83 | SW | 9 | 0.00 |
| 12 | 07/31 | 13:00 | 85 | 57 | 40 | 29.83 | W | 3 | 0.00 |
| 13 | 07/31 | 12:00 | 84 | 61 | 47 | 29.85 | SSW | 6 | 0.00 |
| 14 | 07/31 | 11:00 | 81 | 61 | 52 | 29.86 | WNW | 3 | 0.00 |
| 15 | 07/31 | 10:00 | 79 | 61 | 56 | 29.86 | N | 0 | 0.00 |
| 16 | 07/31 | 09:00 | 75 | 64 | 69 | 29.87 | SW | 0 | 0.00 |
| 17 | 07/31 | 08:00 | 68 | 63 | 85 | 29.87 | SW | 5 | 0.00 |
| 18 | 07/31 | 07:00 | 63 | 58 | 86 | 29.85 | W | 0 | 0.00 |
| 19 | 07/31 | 06:00 | 63 | 58 | 85 | 29.84 | SSW | 0 | 0.00 |
| 20 | 07/31 | 05:00 | 64 | 58 | 83 | 29.83 | SW | 0 | 0.00 |
| 21 | 07/31 | 04:00 | 66 | 59 | 79 | 29.83 | SW | 0 | 0.00 |
| 22 | 07/31 | 03:00 | 68 | 60 | 77 | 29.83 | NNE | 0 | 0.00 |
| 23 | 07/31 | 02:00 | 69 | 61 | 78 | 29.82 | WNW | 0 | 0.00 |
| 24 | 07/31 | 01:00 | 71 | 62 | 75 | 29.83 | W | 0 | 0.00 |